KCNC

Details ICAO KCNC
Name CHARITON MUNI
Region United States
Timezone America/Chicago (UTC-5.0)
Plans Departing 0
Arriving 9
Stats Elevation 1,050 ft / 320 m (AMSL)
Location 41.019616° -93.360390°
Runways 2
Magnetic Variation 0.606° E
Sunrise 2018-05-24 10:49:32 UTC / 2018-05-24 05:49:32 Local
Sunset 2018-05-25 01:33:57 UTC / 2018-05-24 20:33:57 Local
Advertisement - Login to hide

Runways

ID Width Length Bearing (true) Bearing (mag) Surface Threshold Offset Overrun Length
10 75 ft / 23 m 3,992 ft / 1,217 m 101.76° 101.15° Concrete 0 ft / 0 m 0 ft / 0 m
17 75 ft / 23 m 2,805 ft / 855 m 180.06° 179.45° Concrete 0 ft / 0 m 0 ft / 0 m
28 75 ft / 23 m 3,992 ft / 1,217 m 281.77° 281.16° Concrete 0 ft / 0 m 0 ft / 0 m
35 75 ft / 23 m 2,805 ft / 855 m 0.06° 359.45° Concrete 0 ft / 0 m 0 ft / 0 m

Map

Weather


0- 5 10 15 20 25 30 35+ Temperature / ° C

Clouds and Precipitation
Forecast for 2018-05-25 00:00 UTC. Updated 39 minutes ago

Ground ~20,000 ft ~40,000 ft Winds

METAR

KCNC 242335Z AUTO 17013G20KT 10SM CLR 29/18 A2998 RMK AO2

TAF

Not found

Frequencies

Recorded 125.52 MHz AWOS 3
Approach 135.20 MHz DES MOINES APP/DEP
Unicom 122.80 MHz CTAF/UNICOM
Warning: Do not use this data for real-world aviation or navigation. No guarantee of current accuracy is given.